Flight Track Log - Related Links

Times and Time Zones

All times are in EST time to prevent confusion due to time zone crossing. See the UAL25 flight status page for this flight to view local times or setup timezone preferences in your user account.


Time Position Orientation Groundspeed Altitude Reporting Facility
EST Latitude Longitude Course Direction KTS MPH feet Rate Location/Type
Sun 07:41:53 PM 40.6965 -74.1689 143° Southeast 86 99  Level FlightAware ADS-B
Sun 07:42:23 PM 40.6783 -74.1801 205° Southwest 166 191 300 882 Climbing FlightAware ADS-B
Sun 07:42:27 PM 40.6757 -74.1816 204° Southwest 169 194 500 3,000 Climbing FlightAware ADS-B
Sun 07:42:35 PM 40.6699 -74.1840 197° South 170 196 900 3,000 Climbing FlightAware ADS-B
Sun 07:42:39 PM 40.6667 -74.1849 192° South 172 198 1,100 2,400 Climbing FlightAware ADS-B
Sun 07:42:50 PM 40.6578 -74.1847 179° South 182 209 1,500 1,846 Climbing FlightAware ADS-B
Sun 07:43:05 PM 40.6446 -74.1866 186° South 190 219 1,900 1,500 Climbing FlightAware ADS-B
Sun 07:43:10 PM 40.6405 -74.1888 202° Southwest 195 224 2,000 1,950 Climbing FlightAware ADS-B
Sun 07:43:45 PM 40.6240 -74.2180 233° Southwest 191 220 3,200 2,105 Climbing FlightAware ADS-B
Sun 07:44:07 PM 40.6340 -74.2417 299° West 199 229 4,000 2,000 Climbing FlightAware ADS-B
Sun 07:44:12 PM 40.6384 -74.2449 331° Northwest 223 257 4,100 2,182 Climbing FlightAware ADS-B
Sun 07:44:18 PM 40.6444 -74.2474 342° North 234 269 4,400 3,000 Climbing FlightAware ADS-B
Sun 07:44:32 PM 40.6609 -74.2462 North 239 275 5,100 2,211 Climbing FlightAware ADS-B
Sun 07:44:56 PM 40.6856 -74.2281 29° Northeast 266 306 5,800 2,677 Climbing FlightAware ADS-B
Sun 07:45:37 PM 40.7254 -74.1871 38° Northeast 268 308 8,000 3,214 Climbing FlightAware ADS-B
Sun 07:45:52 PM 40.7404 -74.1709 39° Northeast 268 308 8,800 2,903 Climbing FlightAware ADS-B
Sun 07:46:08 PM 40.7555 -74.1553 38° Northeast 273 314 9,500 1,875 Climbing FlightAware ADS-B
Sun 07:46:24 PM 40.7721 -74.1391 36° Northeast 279 321 9,800 632 Climbing FlightAware ADS-B
Sun 07:46:46 PM 40.7972 -74.1130 38° Northeast 339 390 9,900 231 Climbing FlightAware ADS-B
Sun 07:46:50 PM 40.8017 -74.1063 48° Northeast 350 403 9,900 1,333 Level FlightAware ADS-B
Sun 07:47:13 PM 40.8223 -74.0616 59° Northeast 368 423 10,500 2,000 Climbing FlightAware ADS-B
Sun 07:47:44 PM 40.8453 -73.9996 64° Northeast 380 437 11,700 1,313 Climbing FlightAware ADS-B
Sun 07:48:17 PM 40.8709 -73.9296 64° Northeast 382 440 11,900 1,138 Climbing FlightAware ADS-B
Sun 07:48:42 PM 40.8902 -73.8771 64° Northeast 378 435 12,800 2,143 Climbing FlightAware ADS-B (KSNC)
Sun 07:49:13 PM 40.9138 -73.8130 64° Northeast 393 452 13,900 2,211 Climbing FlightAware ADS-B (KSNC)
Sun 07:49:58 PM 40.9582 -73.7203 58° Northeast 399 459 15,600 2,182 Climbing FlightAware ADS-B (KSNC)
Sun 07:50:30 PM 40.9929 -73.6708 47° Northeast 407 468 16,700 2,118 Climbing FlightAware ADS-B (KSNC)
Sun 07:51:06 PM 41.0430 -73.6020 46° Northeast 415 478 18,000 2,182 Climbing FlightAware ADS-B
Sun 07:51:25 PM 41.0674 -73.5691 45° Northeast 420 483 18,700 1,959 Climbing FlightAware ADS-B (KSNC)
Sun 07:51:55 PM 41.1120 -73.5084 46° Northeast 434 499 19,600 1,941 Climbing FlightAware ADS-B (KSNC)
Sun 07:52:33 PM 41.1644 -73.4369 46° Northeast 443 510 20,900 1,944 Climbing FlightAware ADS-B (KSNC)
Sun 07:53:06 PM 41.2145 -73.3683 46° Northeast 451 519 21,900 1,905 Climbing FlightAware ADS-B (KSNC)
Sun 07:53:36 PM 41.2579 -73.3090 46° Northeast 457 526 22,900 1,853 Climbing FlightAware ADS-B (KSNC)
Sun 07:54:14 PM 41.3144 -73.2314 46° Northeast 463 533 24,000 1,769 Climbing FlightAware ADS-B (KSNC)
Sun 07:54:54 PM 41.3726 -73.1478 47° Northeast 476 548 25,200 1,595 Climbing FlightAware ADS-B (KSNC)
Sun 07:55:33 PM 41.4224 -73.0493 56° Northeast 497 572 26,100 1,268 Climbing FlightAware ADS-B (KSNC)
Sun 07:56:05 PM 41.4592 -72.9661 59° Northeast 509 586 26,700 1,345 Climbing FlightAware ADS-B (KSNC)
Sun 07:56:31 PM 41.4866 -72.8902 64° Northeast 531 611 27,400 1,500 Climbing FlightAware ADS-B (KSNC)
Sun 07:57:01 PM 41.5036 -72.7911 77° East 539 620 28,100 1,279 Climbing FlightAware ADS-B (KSNC)
Sun 07:57:32 PM 41.5197 -72.6926 78° East 546 628 28,700 1,164 Climbing FlightAware ADS-B (KSNC)
Sun 07:58:08 PM 41.5412 -72.5721 77° East 554 638 29,400 1,433 Climbing FlightAware ADS-B (KSNC)
Sun 07:58:39 PM 41.5573 -72.4710 78° East 549 632 30,300 1,765 Climbing FlightAware ADS-B (KSNC)
Sun 07:59:16 PM 41.5721 -72.3678 79° East 550 633 31,400 1,478 Climbing FlightAware ADS-B (KBKF)
Sun 07:59:48 PM 41.5894 -72.2440 79° East 554 638 32,000 1,313 Climbing FlightAware ADS-B (KBKF)
Sun 08:00:20 PM 41.6037 -72.1414 79° East 551 634 32,800 1,548 Climbing FlightAware ADS-B (KBKF)
Sun 08:00:50 PM 41.6181 -72.0315 80° East 553 636 33,600 1,475 Climbing FlightAware ADS-B
Sun 08:01:21 PM 41.6190 -71.9313 89° East 555 639 34,300 1,200 Climbing FlightAware ADS-B
Sun 08:01:55 PM 41.6171 -71.8133 91° East 556 640 34,900 656 Climbing FlightAware ADS-B
Sun 08:02:25 PM 41.6152 -71.7115 91° East 561 646 35,000 73 Climbing FlightAware ADS-B (KBKF)
Sun 08:03:17 PM 41.6126 -71.5299 91° East 569 655 35,000  Level FlightAware ADS-B
Sun 08:03:41 PM 41.6157 -71.4415 87° East 569 655 35,000  Level FlightAware ADS-B
Sun 08:04:00 PM 41.6207 -71.3760 84° East 568 654 35,000  Level FlightAware ADS-B
Sun 08:04:33 PM 41.6353 -71.2606 80° East 569 655 35,000  Level FlightAware ADS-B
Sun 08:05:07 PM 41.6521 -71.1477 79° East 568 654 35,000  Level FlightAware ADS-B (KBKF)
Sun 08:05:43 PM 41.6705 -71.0196 79° East 561 646 35,000  Level FlightAware ADS-B
Sun 08:06:13 PM 41.6849 -70.9180 79° East 556 640 35,000  Level FlightAware ADS-B
Sun 08:06:54 PM 41.7008 -70.8071 79° East 552 635 35,000  Level FlightAware ADS-B (KOWD)
Sun 08:07:27 PM 41.7130 -70.7224 79° East 547 629 35,000  Level FlightAware ADS-B (NHT / EGWU)
Sun 08:07:59 PM 41.7355 -70.5676 79° East 544 626 35,000  Level FlightAware ADS-B (KOWD)
Sun 08:08:08 PM 41.7400 -70.5372 79° East 543 625 35,000  Level FlightAware ADS-B
Sun 08:09:01 PM 41.7652 -70.3635 79° East 545 627 35,000  Level FlightAware ADS-B (NHT / EGWU)
Sun 08:09:26 PM 41.7774 -70.2789 79° East 543 625 35,000  Level FlightAware ADS-B
Sun 08:10:00 PM 41.7935 -70.1658 79° East 549 632 35,000  Level FlightAware ADS-B (KBKF)
Sun 08:10:31 PM 41.8083 -70.0615 79° East 551 634 35,000  Level FlightAware ADS-B
Sun 08:11:01 PM 41.8225 -69.9603 79° East 554 638 35,000  Level FlightAware ADS-B (NHT / EGWU)
Sun 08:11:36 PM 41.8385 -69.8456 79° East 554 638 35,000  Level FlightAware ADS-B (NHT / EGWU)
Sun 08:12:32 PM 41.8490 -69.7701 79° East 558 642 35,000  Level FlightAware ADS-B (NHT / EGWU)
Sun 08:13:14 PM 41.8840 -69.5140 80° East 558 642 35,000  Level FlightAware ADS-B
Sun 08:13:30 PM 41.8916 -69.4566 80° East 559 643 35,000  Level FlightAware ADS-B
Sun 08:14:01 PM 41.9050 -69.3580 80° East 559 643 35,000  Level FlightAware ADS-B
Sun 08:14:58 PM 41.9310 -69.1610 80° East 559 643 35,000  Level FlightAware ADS-B
Sun 08:15:21 PM 41.9420 -69.0767 80° East 559 643 35,000  Level FlightAware ADS-B (NHT / EGWU)
Sun 08:15:52 PM 41.9556 -68.9729 80° East 559 643 35,000  Level FlightAware ADS-B (NHT / EGWU)
Sun 08:17:01 PM 41.9863 -68.7362 80° East 558 642 35,000  Level FlightAware ADS-B (NHT / EGWU)
Sun 08:17:32 PM 41.9999 -68.6302 80° East 559 643 35,000  Level FlightAware ADS-B (NHT / EGWU)
Sun 08:18:02 PM 42.0093 -68.5564 80° East 560 644 35,000  Level FlightAware ADS-B (NHT / EGWU)
Sun 08:18:32 PM 42.0259 -68.4251 80° East 559 643 35,000  Level FlightAware ADS-B (NHT / EGWU)
Sun 08:19:09 PM 42.0412 -68.3012 80° East 560 644 35,000  Level FlightAware ADS-B
Sun 08:19:43 PM 42.0560 -68.1829 80° East 559 643 35,000  Level FlightAware ADS-B (NHT / EGWU)
Sun 08:20:15 PM 42.0663 -68.0981 81° East 559 643 35,000  Level FlightAware ADS-B
Sun 08:20:52 PM 42.0845 -67.9496 81° East 558 642 35,000  Level FlightAware ADS-B
Sun 08:21:27 PM 42.0987 -67.8320 81° East 558 642 35,000  Level FlightAware ADS-B
Sun 08:22:03 PM 42.1130 -67.7124 81° East 557 641 35,000  Level FlightAware ADS-B (NHT / EGWU)
Sun 08:22:37 PM 42.1274 -67.5906 81° East 558 642 35,000  Level FlightAware ADS-B
Sun 08:23:18 PM 42.1443 -67.4487 81° East 560 644 35,000  Level FlightAware ADS-B
Sun 08:24:11 PM 42.1570 -67.3400 81° East 555 639 35,000  Level FlightAware ADS-B
Sun 08:24:57 PM 42.1834 -67.1090 81° East 561 646 35,000  Level FlightAware ADS-B
Sun 08:25:28 PM 42.1998 -67.0013 78° East 558 642 35,000  Level FlightAware ADS-B
Sun 08:26:03 PM 42.2299 -66.8870 70° East 556 640 35,000  Level FlightAware ADS-B
Sun 08:26:34 PM 42.2572 -66.7974 68° East 555 639 35,000  Level FlightAware ADS-B
Sun 08:27:07 PM 42.2929 -66.6829 67° East 554 638 35,000  Level FlightAware ADS-B
Sun 08:27:49 PM 42.3343 -66.5501 67° East 553 636 35,000  Level FlightAware ADS-B
Sun 08:28:19 PM 42.3640 -66.4540 67° East 553 636 35,000  Level FlightAware ADS-B
Sun 08:28:50 PM 42.3909 -66.3667 67° East 554 638 35,000  Level FlightAware ADS-B
Sun 08:29:21 PM 42.4249 -66.2561 67° East 555 639 35,000  Level FlightAware ADS-B
Sun 08:29:51 PM 42.4494 -66.1760 67° East 556 640 35,000  Level FlightAware ADS-B
Sun 08:30:22 PM 42.4834 -66.0637 68° East 555 639 35,000  Level FlightAware ADS-B
Sun 08:31:13 PM 42.5315 -65.9046 68° East 556 640 35,000  Level FlightAware ADS-B
Sun 08:31:43 PM 42.5622 -65.8023 68° East 556 640 35,000  Level FlightAware ADS-B
Sun 08:32:13 PM 42.5856 -65.7242 68° East 555 639 35,000  Level FlightAware ADS-B
Sun 08:32:43 PM 42.6204 -65.6075 68° East 555 639 35,000  Level FlightAware ADS-B
Sun 08:33:18 PM 42.6542 -65.4935 68° East 555 639 35,000  Level FlightAware ADS-B
Sun 08:33:49 PM 42.6836 -65.3941 68° East 555 639 35,000  Level FlightAware ADS-B
Sun 08:34:22 PM 42.7104 -65.3036 68° East 556 640 35,000  Level FlightAware ADS-B
Sun 08:34:54 PM 42.7452 -65.1850 68° East 557 641 35,000  Level FlightAware ADS-B
Sun 08:35:33 PM 42.7804 -65.0655 68° East 558 642 35,000  Level FlightAware ADS-B
Sun 08:36:04 PM 42.8108 -64.9607 68° East 557 641 35,000  Level FlightAware ADS-B
Sun 08:36:35 PM 42.8412 -64.8559 68° East 556 640 35,000  Level FlightAware ADS-B
Sun 08:37:26 PM 42.8856 -64.7016 68° East 555 639 35,000  Level FlightAware ADS-B
Sun 08:38:06 PM 42.9239 -64.5689 68° East 555 639 35,000  Level FlightAware ADS-B
Sun 08:38:36 PM 42.9545 -64.4616 69° East 555 639 35,000  Level FlightAware ADS-B
Sun 08:39:06 PM 42.9814 -64.3674 69° East 553 636 35,000  Level FlightAware ADS-B
Sun 08:39:37 PM 43.0108 -64.2634 69° East 552 635 35,000  Level FlightAware ADS-B
Sun 08:40:07 PM 43.0386 -64.1650 69° East 551 634 35,000  Level FlightAware ADS-B
Sun 08:40:41 PM 43.0697 -64.0549 69° East 549 632 35,000  Level FlightAware ADS-B
Sun 08:42:00 PM 43.1409 -63.8000 69° East 549 632 35,000  Level FlightAware ADS-B
Sun 08:42:41 PM 43.1763 -63.6723 69° East 549 632 35,000  Level FlightAware ADS-B
Sun 08:43:32 PM 43.2235 -63.5006 69° East 547 629 35,000  Level FlightAware ADS-B
Sun 08:44:53 PM 43.2858 -63.2727 69° East 548 631 35,000  Level FlightAware ADS-B
Sun 08:45:36 PM 43.3315 -63.1048 69° East 548 631 35,000  Level FlightAware ADS-B
Sun 08:47:21 PM 43.4248 -62.7565 70° East 548 631 35,000  Level FlightAware ADS-B
Sun 08:49:47 PM 43.5512 -62.2770 70° East 555 639 35,000  Level FlightAware ADS-B
Sun 08:50:20 PM 43.5667 -62.1667 70° East 550 633 35,000  Level Moncton Center
Sun 08:51:20 PM 43.6000 -61.9500 78° East 550 633 35,000  Level Moncton Center
Sun 08:52:20 PM 43.6667 -61.7667 63° Northeast 550 633 35,000  Level Moncton Center
Sun 08:53:20 PM 43.7167 -61.5500 72° East 560 644 35,000  Level Moncton Center
Sun 08:54:20 PM 43.7667 -61.3500 71° East 560 644 35,000  Level Moncton Center
Sun 08:55:20 PM 43.8167 -61.1500 71° East 560 644 35,000  Level Moncton Center
Sun 08:56:20 PM 43.8667 -60.9500 71° East 560 644 35,000  Level Moncton Center
Sun 08:57:20 PM 43.9167 -60.7500 71° East 560 644 35,000  Level Moncton Center
Sun 08:58:20 PM 43.9667 -60.5167 73° East 560 644 35,000  Level Moncton Center
Sun 09:04:49 PM 44.1770 -59.1830 73° East 557 641 35,000  Level FlightAware ADS-B
Sun 09:05:43 PM 44.2010 -58.9960 80° East 557 641 35,000  Level FlightAware ADS-B
Sun 09:06:48 PM 44.2280 -58.8010 79° East 557 641 35,000  Level FlightAware ADS-B
Sun 09:07:43 PM 44.2550 -58.5690 81° East 558 642 35,000  Level FlightAware ADS-B
Sun 09:07:59 PM 44.2630 -58.5130 79° East 558 642 35,000  Level FlightAware ADS-B
Sun 09:09:14 PM 44.2910 -58.2860 80° East 558 642 35,000  Level FlightAware ADS-B
Sun 09:09:35 PM 44.3050 -58.1710 80° East 559 643 35,000  Level FlightAware ADS-B
Sun 09:10:19 PM 44.3240 -58.0130 80° East 558 642 35,000  Level FlightAware ADS-B
Sun 09:10:58 PM 44.3390 -57.8850 81° East 558 642 35,000  Level FlightAware ADS-B
Sun 09:11:38 PM 44.3540 -57.7650 80° East 558 642 35,000  Level FlightAware ADS-B
Sun 09:12:45 PM 44.3840 -57.4960 81° East 561 646 35,000  Level FlightAware ADS-B
Sun 09:13:23 PM 44.3990 -57.3790 80° East 561 646 35,000  Level FlightAware ADS-B
Sun 09:14:11 PM 44.4170 -57.2330 80° East 561 646 35,000  Level FlightAware ADS-B
Sun 09:15:00 PM 44.4360 -57.0840 80° East 561 646 35,000  Level FlightAware ADS-B
Sun 09:15:36 PM 44.4500 -56.9740 80° East 561 646 35,000  Level FlightAware ADS-B
Sun 09:16:12 PM 44.4630 -56.8650 80° East 561 646 35,000  Level FlightAware ADS-B
Sun 09:17:12 PM 44.4860 -56.6820 80° East 561 646 35,000  Level FlightAware ADS-B
Sun 09:18:01 PM 44.5050 -56.5330 80° East 561 646 35,000  Level FlightAware ADS-B
Sun 09:18:37 PM 44.5190 -56.4230 80° East 561 646 35,000  Level FlightAware ADS-B
Sun 09:19:37 PM 44.5420 -56.2400 80° East 561 646 35,000  Level FlightAware ADS-B
Sun 09:20:13 PM 44.5560 -56.1300 80° East 561 646 35,000  Level FlightAware ADS-B
Sun 09:20:49 PM 44.5690 -56.0200 81° East 561 646 35,000  Level FlightAware ADS-B
Sun 09:21:25 PM 44.5830 -55.9110 80° East 561 646 35,000  Level FlightAware ADS-B
Sun 09:22:01 PM 44.5970 -55.8010 80° East 561 646 35,000  Level FlightAware ADS-B
Sun 09:23:41 PM 44.6230 -55.1930 86° East 533 613 35,000  Level FlightAware ADS-B
Sun 09:24:12 PM 44.6340 -55.0720 83° East 532 612 35,000  Level FlightAware ADS-B
Sun 09:25:12 PM 44.6530 -54.8660 83° East 531 611 35,000  Level FlightAware ADS-B
Sun 09:25:38 PM 44.6610 -54.7750 83° East 531 611 35,000  Level FlightAware ADS-B
Sun 09:26:42 PM 44.6790 -54.5610 83° East 530 610 35,000  Level FlightAware ADS-B
Sun 09:27:33 PM 44.6940 -54.3860 83° East 530 610 35,000  Level FlightAware ADS-B
Sun 09:28:23 PM 44.7090 -54.2130 83° East 529 609 35,000  Level FlightAware ADS-B
Sun 09:29:24 PM 44.7260 -54.0070 83° East 527 606 35,000  Level FlightAware ADS-B
Sun 09:29:56 PM 44.7350 -53.8970 83° East 525 604 35,000  Level FlightAware ADS-B
Sun 09:30:26 PM 44.7430 -53.7960 84° East 524 603 35,000  Level FlightAware ADS-B
Sun 09:30:55 PM 44.7510 -53.6980 83° East 524 603 35,000  Level FlightAware ADS-B
Sun 09:31:56 PM 44.7660 -53.4930 84° East 522 601 35,000  Level FlightAware ADS-B
Sun 09:32:51 PM 44.7800 -53.3070 84° East 520 598 35,000  Level FlightAware ADS-B
Sun 09:33:44 PM 44.7940 -53.1300 84° East 518 596 35,000  Level FlightAware ADS-B
Sun 09:34:36 PM 44.8070 -52.9550 84° East 519 597 35,000  Level FlightAware ADS-B
Sun 09:35:04 PM 44.8130 -52.8600 85° East 519 597 35,000  Level FlightAware ADS-B
Sun 09:35:40 PM 44.8220 -52.7390 84° East 520 598 35,000  Level FlightAware ADS-B
Sun 09:36:42 PM 44.8360 -52.5330 84° East 519 597 35,000  Level FlightAware ADS-B
Sun 09:37:34 PM 44.8480 -52.3580 84° East 521 600 35,000  Level FlightAware ADS-B
Sun 09:38:25 PM 44.8590 -52.1840 85° East 520 598 35,000  Level FlightAware ADS-B
Sun 09:39:29 PM 44.8730 -51.9710 85° East 521 600 35,000  Level FlightAware ADS-B
Sun 09:40:21 PM 44.8840 -51.7970 85° East 522 601 35,000  Level FlightAware ADS-B
Sun 09:41:12 PM 44.8950 -51.6200 85° East 524 603 35,000  Level FlightAware ADS-B
Sun 09:42:13 PM 44.9080 -51.4130 85° East 527 606 35,000  Level FlightAware ADS-B
Sun 09:42:42 PM 44.9140 -51.3120 85° East 527 606 35,000  Level FlightAware ADS-B
Sun 09:43:38 PM 44.9250 -51.1220 85° East 530 610 35,000  Level FlightAware ADS-B
Sun 09:44:07 PM 44.9300 -51.0230 86° East 530 610 35,000  Level FlightAware ADS-B
Sun 09:44:42 PM 44.9380 -50.9080 84° East 531 611 35,000  Level FlightAware ADS-B
Sun 09:45:13 PM 44.9440 -50.8120 85° East 531 611 35,000  Level FlightAware ADS-B
Sun 09:45:49 PM 44.9520 -50.7060 84° East 531 611 35,000  Level FlightAware ADS-B
Sun 09:46:25 PM 44.9600 -50.6010 84° East 531 611 35,000  Level FlightAware ADS-B
Sun 09:46:50 PM 44.9660 -50.5270 83° East 531 611 35,000  Level FlightAware ADS-B
Sun 09:47:50 PM 44.9790 -50.3510 84° East 531 611 35,000  Level FlightAware ADS-B
Sun 09:48:39 PM 44.9890 -50.2070 84° East 531 611 35,000  Level FlightAware ADS-B
Sun 09:49:27 PM 45.0000 -50.0660 84° East 531 611 35,000  Level FlightAware ADS-B
Sun 09:50:04 PM 45.0080 -49.9580 84° East 531 611 35,000  Level FlightAware ADS-B
Sun 09:51:04 PM 45.0210 -49.7810 84° East 531 611 35,000  Level FlightAware ADS-B
Sun 09:51:52 PM 45.0310 -49.6400 84° East 531 611 35,000  Level FlightAware ADS-B
Sun 09:52:17 PM 45.0370 -49.5670 83° East 531 611 35,000  Level FlightAware ADS-B
Sun 09:53:30 PM 45.0530 -49.3520 84° East 531 611 35,000  Level FlightAware ADS-B
Sun 09:54:06 PM 45.0600 -49.2470 85° East 531 611 35,000  Level FlightAware ADS-B
Sun 09:54:42 PM 45.0680 -49.1410 84° East 531 611 35,000  Level FlightAware ADS-B
Sun 09:55:31 PM 45.2833 -48.6833 84° East 530 610 35,000  Level Gander Center
Sun 09:56:06 PM 45.3167 -48.5667 68° East 530 610 35,000  Level Gander Center
Sun 09:57:06 PM 45.3667 -48.3667 70° East 540 621 35,000  Level Gander Center
Sun 09:58:06 PM 45.4000 -48.1500 78° East 530 610 35,000  Level Gander Center
Sun 09:59:06 PM 45.4667 -47.9667 63° Northeast 530 610 35,000  Level Gander Center
Sun 10:00:06 PM 45.4833 -47.7833 83° East 520 598 35,000  Level Gander Center
Sun 10:01:06 PM 45.5500 -47.5667 66° East 530 610 35,000  Level Gander Center
Sun 10:02:06 PM 45.6000 -47.3833 69° East 530 610 35,000  Level Gander Center
Sun 10:04:00 PM 45.6837 -47.0161 72° East  Level FlightAware Approximate
Sun 10:11:00 PM 45.9817 -45.6538 72° East  Level FlightAware Approximate
Sun 10:12:00 PM 46.0229 -45.4580 73° East  Level FlightAware Approximate
Sun 10:13:00 PM 46.0638 -45.2620 73° East  Level FlightAware Approximate
Sun 10:14:00 PM 46.1044 -45.0656 73° East  Level FlightAware Approximate
Sun 10:15:00 PM 46.1446 -44.8689 73° East  Level FlightAware Approximate
Sun 10:16:00 PM 46.1845 -44.6720 74° East  Level FlightAware Approximate
Sun 10:17:00 PM 46.2241 -44.4748 74° East  Level FlightAware Approximate
Sun 10:18:00 PM 46.2633 -44.2772 74° East  Level FlightAware Approximate
Sun 10:19:00 PM 46.3022 -44.0794 74° East  Level FlightAware Approximate
Sun 10:20:00 PM 46.3407 -43.8814 74° East  Level FlightAware Approximate
Sun 10:21:00 PM 46.3783 -43.6828 75° East  Level FlightAware Approximate
Sun 10:22:00 PM 46.4153 -43.4838 75° East  Level FlightAware Approximate
Sun 10:23:00 PM 46.4519 -43.2845 75° East  Level FlightAware Approximate
Sun 10:24:00 PM 46.4882 -43.0850 75° East  Level FlightAware Approximate
Sun 10:25:00 PM 46.5242 -42.8853 75° East  Level FlightAware Approximate
Sun 10:26:00 PM 46.5598 -42.6852 75° East  Level FlightAware Approximate
Sun 10:27:00 PM 46.5951 -42.4850 76° East  Level FlightAware Approximate
Sun 10:28:00 PM 46.6300 -42.2844 76° East  Level FlightAware Approximate
Sun 10:29:00 PM 46.6645 -42.0836 76° East  Level FlightAware Approximate
Sun 10:30:00 PM 46.6987 -41.8825 76° East  Level FlightAware Approximate
Sun 10:31:00 PM 46.7326 -41.6812 76° East  Level FlightAware Approximate
Sun 10:32:00 PM 46.7661 -41.4796 76° East  Level FlightAware Approximate
Sun 10:33:00 PM 46.7992 -41.2778 76° East  Level FlightAware Approximate
Sun 10:34:00 PM 46.8320 -41.0758 77° East  Level FlightAware Approximate
Sun 10:35:00 PM 46.8645 -40.8735 77° East  Level FlightAware Approximate
Sun 10:36:00 PM 46.8965 -40.6709 77° East  Level FlightAware Approximate
Sun 10:37:00 PM 46.9283 -40.4681 77° East  Level FlightAware Approximate
Sun 10:38:00 PM 46.9596 -40.2651 77° East  Level FlightAware Approximate
Sun 10:39:00 PM 46.9907 -40.0618 77° East  Level FlightAware Approximate
Sun 10:40:00 PM 47.0343 -39.8639 70° East  Level FlightAware Approximate
Sun 10:41:00 PM 47.0832 -39.6680 70° East  Level FlightAware Approximate
Sun 10:42:00 PM 47.1319 -39.4718 70° East  Level FlightAware Approximate
Sun 10:43:00 PM 47.1801 -39.2752 70° East  Level FlightAware Approximate
Sun 10:44:00 PM 47.2281 -39.0783 70° East  Level FlightAware Approximate
Sun 10:45:00 PM 47.2757 -38.8810 70° East  Level FlightAware Approximate
Sun 10:46:00 PM 47.3230 -38.6834 70° East  Level FlightAware Approximate
Sun 10:47:00 PM 47.3699 -38.4854 71° East  Level FlightAware Approximate
Sun 10:48:00 PM 47.4165 -38.2871 71° East  Level FlightAware Approximate
Sun 10:49:00 PM 47.4627 -38.0884 71° East  Level FlightAware Approximate
Sun 10:50:00 PM 47.5087 -37.8894 71° East  Level FlightAware Approximate
Sun 10:51:00 PM 47.5542 -37.6900 71° East  Level FlightAware Approximate
Sun 10:52:00 PM 47.5994 -37.4903 71° East  Level FlightAware Approximate
Sun 10:53:00 PM 47.6443 -37.2902 72° East  Level FlightAware Approximate
Sun 10:54:00 PM 47.6888 -37.0898 72° East  Level FlightAware Approximate
Sun 10:55:00 PM 47.7330 -36.8890 72° East  Level FlightAware Approximate
Sun 10:56:00 PM 47.7768 -36.6880 72° East  Level FlightAware Approximate
Sun 10:57:00 PM 47.8203 -36.4865 72° East  Level FlightAware Approximate
Sun 10:58:00 PM 47.8634 -36.2848 72° East  Level FlightAware Approximate
Sun 10:59:00 PM 47.9061 -36.0827 72° East  Level FlightAware Approximate
Sun 11:00:00 PM 47.9485 -35.8802 73° East  Level FlightAware Approximate
Sun 11:01:00 PM 47.9906 -35.6775 73° East  Level FlightAware Approximate
Sun 11:02:00 PM 48.0323 -35.4744 73° East  Level FlightAware Approximate
Sun 11:03:00 PM 48.0736 -35.2709 73° East  Level FlightAware Approximate
Sun 11:04:00 PM 48.1146 -35.0672 73° East  Level FlightAware Approximate
Sun 11:05:00 PM 48.1552 -34.8631 73° East  Level FlightAware Approximate
Sun 11:06:00 PM 48.1954 -34.6587 73° East  Level FlightAware Approximate
Sun 11:07:00 PM 48.2353 -34.4540 74° East  Level FlightAware Approximate
Sun 11:08:00 PM 48.2748 -34.2490 74° East  Level FlightAware Approximate
Sun 11:09:00 PM 48.3140 -34.0436 74° East  Level FlightAware Approximate
Sun 11:10:00 PM 48.3528 -33.8380 74° East  Level FlightAware Approximate
Sun 11:11:00 PM 48.3912 -33.6320 74° East  Level FlightAware Approximate
Sun 11:12:00 PM 48.4293 -33.4257 74° East  Level FlightAware Approximate
Sun 11:13:00 PM 48.4669 -33.2191 75° East  Level FlightAware Approximate
Sun 11:14:00 PM 48.5043 -33.0122 75° East  Level FlightAware Approximate
Sun 11:15:00 PM 48.5412 -32.8050 75° East  Level FlightAware Approximate
Sun 11:16:00 PM 48.5778 -32.5975 75° East  Level FlightAware Approximate
Sun 11:17:00 PM 48.6140 -32.3897 75° East  Level FlightAware Approximate
Sun 11:18:00 PM 48.6498 -32.1816 75° East  Level FlightAware Approximate
Sun 11:19:00 PM 48.6852 -31.9732 75° East  Level FlightAware Approximate
Sun 11:20:00 PM 48.7203 -31.7646 76° East  Level FlightAware Approximate
Sun 11:21:00 PM 48.7550 -31.5556 76° East  Level FlightAware Approximate
Sun 11:22:00 PM 48.7893 -31.3463 76° East  Level FlightAware Approximate
Sun 11:23:00 PM 48.8233 -31.1368 76° East  Level FlightAware Approximate
Sun 11:24:00 PM 48.8568 -30.9270 76° East  Level FlightAware Approximate
Sun 11:25:00 PM 48.8900 -30.7169 76° East  Level FlightAware Approximate
Sun 11:26:00 PM 48.9228 -30.5065 77° East  Level FlightAware Approximate
Sun 11:27:00 PM 48.9552 -30.2958 77° East  Level FlightAware Approximate
Sun 11:28:00 PM 48.9872 -30.0849 77° East  Level FlightAware Approximate
Sun 11:29:00 PM 49.0184 -29.8735 77° East  Level FlightAware Approximate
Sun 11:30:00 PM 49.0488 -29.6617 78° East  Level FlightAware Approximate
Sun 11:31:00 PM 49.0788 -29.4497 78° East  Level FlightAware Approximate
Sun 11:32:00 PM 49.1085 -29.2375 78° East  Level FlightAware Approximate
Sun 11:33:00 PM 49.1378 -29.0250 78° East  Level FlightAware Approximate
Sun 11:34:00 PM 49.1666 -28.8122 78° East  Level FlightAware Approximate
Sun 11:35:00 PM 49.1951 -28.5992 78° East  Level FlightAware Approximate
Sun 11:36:00 PM 49.2232 -28.3859 79° East  Level FlightAware Approximate
Sun 11:37:00 PM 49.2509 -28.1724 79° East  Level FlightAware Approximate
Sun 11:38:00 PM 49.2782 -27.9587 79° East  Level FlightAware Approximate
Sun 11:39:00 PM 49.3051 -27.7447 79° East  Level FlightAware Approximate
Sun 11:40:00 PM 49.3316 -27.5306 79° East  Level FlightAware Approximate
Sun 11:41:00 PM 49.3577 -27.3161 79° East  Level FlightAware Approximate
Sun 11:42:00 PM 49.3834 -27.1015 79° East  Level FlightAware Approximate
Sun 11:43:00 PM 49.4088 -26.8866 80° East  Level FlightAware Approximate
Sun 11:44:00 PM 49.4337 -26.6715 80° East  Level FlightAware Approximate
Sun 11:45:00 PM 49.4582 -26.4562 80° East  Level FlightAware Approximate
Sun 11:46:00 PM 49.4823 -26.2407 80° East  Level FlightAware Approximate
Sun 11:47:00 PM 49.5060 -26.0249 80° East  Level FlightAware Approximate
Sun 11:48:00 PM 49.5294 -25.8090 80° East  Level FlightAware Approximate
Sun 11:49:00 PM 49.5523 -25.5928 81° East  Level FlightAware Approximate
Sun 11:50:00 PM 49.5748 -25.3765 81° East  Level FlightAware Approximate
Sun 11:51:00 PM 49.5969 -25.1600 81° East  Level FlightAware Approximate
Sun 11:52:00 PM 49.6186 -24.9432 81° East  Level FlightAware Approximate
Sun 11:53:00 PM 49.6399 -24.7263 81° East  Level FlightAware Approximate
Sun 11:54:00 PM 49.6608 -24.5092 81° East  Level FlightAware Approximate
Sun 11:55:00 PM 49.6813 -24.2918 82° East  Level FlightAware Approximate
Sun 11:56:00 PM 49.7014 -24.0744 82° East  Level FlightAware Approximate
Sun 11:57:00 PM 49.7210 -23.8567 82° East  Level FlightAware Approximate
Sun 11:58:00 PM 49.7403 -23.6389 82° East  Level FlightAware Approximate
Sun 11:59:00 PM 49.7592 -23.4209 82° East  Level FlightAware Approximate
Mon 12:00:00 AM 49.7776 -23.2027 82° East  Level FlightAware Approximate
Mon 12:01:00 AM 49.7957 -22.9843 83° East  Level FlightAware Approximate
Mon 12:02:00 AM 49.8133 -22.7658 83° East  Level FlightAware Approximate
Mon 12:03:00 AM 49.8305 -22.5472 83° East  Level FlightAware Approximate
Mon 12:04:00 AM 49.8473 -22.3284 83° East  Level FlightAware Approximate
Mon 12:05:00 AM 49.8637 -22.1094 83° East  Level FlightAware Approximate
Mon 12:06:00 AM 49.8797 -21.8903 83° East  Level FlightAware Approximate
Mon 12:07:00 AM 49.8952 -21.6710 84° East  Level FlightAware Approximate
Mon 12:08:00 AM 49.9104 -21.4516 84° East  Level FlightAware Approximate
Mon 12:09:00 AM 49.9251 -21.2321 84° East  Level FlightAware Approximate
Mon 12:10:00 AM 49.9394 -21.0124 84° East  Level FlightAware Approximate
Mon 12:11:00 AM 49.9534 -20.7926 84° East  Level FlightAware Approximate
Mon 12:12:00 AM 49.9669 -20.5727 84° East  Level FlightAware Approximate
Mon 12:13:00 AM 49.9799 -20.3527 85° East  Level FlightAware Approximate
Mon 12:14:00 AM 49.9926 -20.1325 85° East  Level FlightAware Approximate
Mon 12:15:00 AM 50.0243 -19.9205 64° Northeast  Level FlightAware Approximate
Mon 12:16:00 AM 50.0853 -19.7205 65° Northeast  Level FlightAware Approximate
Mon 12:17:00 AM 50.1458 -19.5200 65° Northeast  Level FlightAware Approximate
Mon 12:18:00 AM 50.2060 -19.3190 65° Northeast  Level FlightAware Approximate
Mon 12:19:00 AM 50.2659 -19.1175 65° Northeast  Level FlightAware Approximate
Mon 12:20:00 AM 50.3254 -18.9155 65° Northeast  Level FlightAware Approximate
Mon 12:21:00 AM 50.3846 -18.7129 65° Northeast  Level FlightAware Approximate
Mon 12:22:00 AM 50.4434 -18.5099 65° Northeast  Level FlightAware Approximate
Mon 12:23:00 AM 50.5019 -18.3064 66° East  Level FlightAware Approximate
Mon 12:24:00 AM 50.5600 -18.1023 66° East  Level FlightAware Approximate
Mon 12:25:00 AM 50.6177 -17.8978 66° East  Level FlightAware Approximate
Mon 12:26:00 AM 50.6751 -17.6928 66° East  Level FlightAware Approximate
Mon 12:27:00 AM 50.7322 -17.4872 66° East  Level FlightAware Approximate
Mon 12:28:00 AM 50.7888 -17.2812 66° East  Level FlightAware Approximate
Mon 12:29:00 AM 50.8451 -17.0746 67° East  Level FlightAware Approximate
Mon 12:30:00 AM 50.9011 -16.8676 67° East  Level FlightAware Approximate
Mon 12:31:00 AM 50.9566 -16.6601 67° East  Level FlightAware Approximate
Mon 12:32:00 AM 51.0118 -16.4520 67° East  Level FlightAware Approximate
Mon 12:33:00 AM 51.0667 -16.2435 67° East  Level FlightAware Approximate
Mon 12:34:00 AM 51.1211 -16.0345 67° East  Level FlightAware Approximate
Mon 12:35:00 AM 51.1752 -15.8250 68° East  Level FlightAware Approximate
Mon 12:36:00 AM 51.2289 -15.6150 68° East  Level FlightAware Approximate
Mon 12:37:00 AM 51.2822 -15.4045 68° East  Level FlightAware Approximate
Mon 12:38:00 AM 51.3352 -15.1935 68° East  Level FlightAware Approximate
Mon 12:39:00 AM 51.3875 -14.9819 70° East  Level FlightAware Approximate
Mon 12:40:00 AM 51.4370 -14.7683 70° East  Level FlightAware Approximate
Mon 12:41:00 AM 51.4863 -14.5544 69° East  Level FlightAware Approximate
Mon 12:42:00 AM 51.5378 -14.3416 69° East  Level FlightAware Approximate
Mon 12:43:00 AM 51.5890 -14.1283 69° East  Level FlightAware Approximate
Mon 12:44:00 AM 51.6397 -13.9145 69° East  Level FlightAware Approximate
Mon 12:45:00 AM 51.6901 -13.7002 69° East  Level FlightAware Approximate
Mon 12:46:00 AM 51.7401 -13.4855 69° East  Level FlightAware Approximate
Mon 12:47:00 AM 51.7896 -13.2703 69° East  Level FlightAware Approximate
Mon 12:48:00 AM 51.8388 -13.0546 70° East  Level FlightAware Approximate
Mon 12:49:00 AM 51.8876 -12.8385 70° East  Level FlightAware Approximate
Mon 12:50:00 AM 51.9360 -12.6218 70° East  Level FlightAware Approximate
Mon 12:51:00 AM 51.9848 -12.4052 69° East  Level FlightAware Approximate
Mon 12:52:00 AM 52.0348 -12.1891 69° East  Level FlightAware Approximate
Mon 12:52:31 AM 51.6830 -11.6250 77° East 513 590 35,000  Level FlightAware ADS-B
Mon 12:53:00 AM 52.0782 -11.9694 77° East  Level FlightAware Approximate
Mon 12:53:42 AM 51.7850 -11.4050 53° Northeast 511 588 34,500  Level FlightAware ADS-B
Mon 12:54:11 AM 51.8310 -11.3050 53° Northeast 516 594 33,800 -1,348 Descending FlightAware ADS-B
Mon 12:55:11 AM 51.9160 -11.1190 53° Northeast 522 601 32,500 -1,617 Descending FlightAware ADS-B
Mon 12:56:06 AM 51.9940 -10.9460 54° Northeast 523 602 30,700 -2,298 Descending FlightAware ADS-B
Mon 12:56:45 AM 52.0540 -10.8150 53° Northeast 520 598 28,900 -2,400 Descending FlightAware ADS-B
Mon 12:57:41 AM 52.1270 -10.6530 54° Northeast 505 581 26,900 -2,793 Descending FlightAware ADS-B
Mon 12:58:41 AM 52.2120 -10.4610 54° Northeast 506 582 23,500 -3,063 Descending FlightAware ADS-B
Mon 12:59:17 AM 52.2620 -10.3490 54° Northeast 497 572 22,000 -2,444 Descending FlightAware ADS-B
Mon 01:00:02 AM 52.3190 -10.2210 54° Northeast 481 554 20,200 -2,480 Descending FlightAware ADS-B
Mon 01:00:32 AM 52.3580 -10.1300 55° Northeast 477 549 18,900 -2,677 Descending FlightAware ADS-B
Mon 01:01:07 AM 52.4050 -10.0210 55° Northeast 467 537 17,300 -2,400 Descending FlightAware ADS-B
Mon 01:01:57 AM 52.4640 -9.8820 55° Northeast 456 525 15,500 -2,195 Descending FlightAware ADS-B
Mon 01:02:29 AM 52.5050 -9.7850 55° Northeast 436 502 14,300 -2,226 Descending FlightAware ADS-B
Mon 01:02:59 AM 52.5400 -9.7030 55° Northeast 428 493 13,200 -2,175 Descending FlightAware ADS-B
Mon 01:03:49 AM 52.5950 -9.5720 55° Northeast 409 471 11,400 -2,259 Descending FlightAware ADS-B
Mon 01:04:24 AM 52.6320 -9.4840 55° Northeast 405 466 10,000 -2,280 Descending FlightAware ADS-B
Mon 01:04:39 AM 52.6450 -9.4530 55° Northeast 402 463 9,500 -2,423 Descending FlightAware ADS-B
Mon 01:05:16 AM 52.6850 -9.3520 57° Northeast 398 458 7,900 -2,328 Descending FlightAware ADS-B
Mon 01:05:46 AM 52.7090 -9.2840 60° Northeast 393 452 6,900 -1,962 Descending FlightAware ADS-B
Mon 01:06:08 AM 52.7290 -9.2270 60° Northeast 384 442 6,200 -2,262 Descending FlightAware ADS-B
Mon 01:06:47 AM 52.7650 -9.1220 60° Northeast 374 430 4,600 -1,784 Descending FlightAware ADS-B
Mon 01:07:22 AM 52.7920 -9.0430 61° Northeast 365 420 4,000 -600 Descending FlightAware ADS-B
Mon 01:07:47 AM 52.8140 -8.9790 60° Northeast 363 418 4,000  Level FlightAware ADS-B
Mon 01:08:22 AM 52.8430 -8.8930 61° Northeast 334 384 4,000  Level FlightAware ADS-B
Mon 01:08:42 AM 52.8530 -8.8580 65° Northeast 312 359 4,000 -327 Level FlightAware ADS-B
Mon 01:09:17 AM 52.8710 -8.7770 70° East 287 330 3,700 -655 Descending FlightAware ADS-B
Mon 01:09:37 AM 52.8800 -8.7340 71° East 275 316 3,400 -1,029 Descending FlightAware ADS-B
Mon 01:09:52 AM 52.8870 -8.7050 68° East 275 316 3,100 -439 Descending FlightAware ADS-B
Mon 01:10:18 AM 52.8960 -8.6610 71° East 275 316 3,100  Level FlightAware ADS-B
Mon 01:13:00 AM 52.7020 -8.9248 220° Southwest  Level Estimated
Mon 01:14:00 AM 52.7020 -8.9248 138° Southeast  Level Estimated
Mon 01:15:00 AM 52.7020 -8.9248 138° Southeast  Level Estimated
Mon 01:16:00 AM 52.7020 -8.9248 138° Southeast  Level Estimated
Mon 01:17:00 AM 52.7020 -8.9248 138° Southeast  Level Estimated

Login

Don't have an account? Register now (free) for customized features, flight alerts, and more!